This is the latest recevied weather packets stored in our database for station/object LU8FJH-13. If no packets are shown the sender has not sent any weather packets the latest 10 day(s).
| Time | Temp. | Humidity | Pressure | Rain* | Wind** | Luminosity | Snow |
|---|---|---|---|---|---|---|---|
| 1778188024 | 16.11° C | 51% | 1005.2 hPa | 0 mm | - | - | - |
| 1778187484 | 16.11° C | 51% | 1005.3 hPa | 0 mm | - | - | - |
| 1778186944 | 16.67° C | 51% | 1005.3 hPa | 0 mm | - | - | - |
| 1778186404 | 16.67° C | 50% | 1005.6 hPa | 0 mm | - | - | - |
| 1778185864 | 16.67° C | 50% | 1005.4 hPa | 0 mm | - | - | - |
| 1778185324 | 16.67° C | 49% | 1005.7 hPa | 0 mm | - | - | - |
| 1778184784 | 17.22° C | 48% | 1005.6 hPa | 0 mm | - | - | - |
| 1778184244 | 17.22° C | 47% | 1005.3 hPa | 0 mm | - | - | - |
| 1778183704 | 17.22° C | 47% | 1005.6 hPa | 0 mm | - | - | - |
| 1778183164 | 17.22° C | 45% | 1005.6 hPa | 0 mm | - | - | - |
| 1778182624 | 17.78° C | 45% | 1005.4 hPa | 0 mm | - | - | - |
| 1778182084 | 17.78° C | 44% | 1004.8 hPa | 0 mm | - | - | - |
| 1778181544 | 18.33° C | 43% | 1004.5 hPa | 0 mm | - | - | - |
| 1778181004 | 18.89° C | 43% | 1003.9 hPa | 0 mm | - | - | - |
| 1778180464 | 18.33° C | 42% | 1003.8 hPa | 0 mm | - | - | - |
| 1778179924 | 18.89° C | 41% | 1003.7 hPa | 0 mm | - | - | - |
| 1778179384 | 18.89° C | 41% | 1003.7 hPa | 0 mm | - | - | - |
| 1778178844 | 18.89° C | 43% | 1003.1 hPa | 0 mm | - | - | - |
| 1778178304 | 17.78° C | 47% | 1003.7 hPa | 0 mm | - | - | - |
| 1778177764 | 17.78° C | 48% | 1004.3 hPa | 0 mm | - | - | - |
| 1778177224 | 17.78° C | 50% | 1004.5 hPa | 0 mm | - | - | - |
| 1778176684 | 16.11° C | 52% | 1004.4 hPa | 0 mm | - | - | - |
| 1778176144 | 16.11° C | 53% | 1004.9 hPa | 0 mm | - | - | - |
| 1778175604 | 16.11° C | 54% | 1005.3 hPa | 0 mm | - | - | - |
| 1778175064 | 16.11° C | 53% | 1005.5 hPa | 0 mm | - | - | - |
* Rain latest hour (hover to see other rain measurements)
** Current wind speed in m/s (hover to see current wind gust speed)